Gordon, Kentucky
Current Conditions -  °F | °C
As of 3:35 PM on Monday 24 Nov 2014 (Local Time) from KI35 Reporting Station
Clear Clear  
Wind Chill: 68°   Ceiling: Unl
Heat Index: 68°   Visibility: 10mi
Dew Point: 37°   Wind: 18mph
Humidity: 33%   Direction: 260°W
Pressure: 29.71"   Gusts: 28mph
Location:  37.02°N, 83.01°W
Report Text: KI35 242035Z AUTO 26016G24KT 220V290 10SM CLR 20/03 A2971 RMK AO1
Loading
Personal Weather Stations






























Interactive Weather Map New forecast layout! Learn more

10-Day Weather Forecast

Advertisements
Track Severe Weather on mobile